Time;durP1;ratioP1;P1;durP2;ratioP2;P2;SDS_P1;SDS_P2;PMS_P1;PMS_P2;Temp;Humidity;BMP_temperature;BMP_pressure;BME280_temperature;BME280_humidity;BME280_pressure;Samples;Min_cycle;Max_cycle;Signal;HPM_P1;HPM_P2
2021/04/10 00:00:55;;;;;;;7.18;3.00;;;;;;;;;;5051444;28;20399;-65
2021/04/10 00:03:22;;;;;;;7.78;3.00;;;;;;;;;;5051053;28;20140;-65
2021/04/10 00:05:50;;;;;;;8.40;2.97;;;;;;;;;;5050645;28;20494;-65
2021/04/10 00:08:17;;;;;;;8.05;2.58;;;;;;;;;;5039077;28;20059;-65
2021/04/10 00:10:44;;;;;;;8.88;3.30;;;;;;;;;;5051029;28;20441;-65
2021/04/10 00:13:12;;;;;;;5.13;2.70;;;;;;;;;;5051210;28;20108;-65
2021/04/10 00:15:40;;;;;;;6.53;3.28;;;;;;;;;;5036335;28;20511;-65
2021/04/10 00:18:07;;;;;;;6.10;3.10;;;;;;;;;;5049712;28;20049;-65
2021/04/10 00:20:34;;;;;;;7.18;3.08;;;;;;;;;;5050385;28;20051;-65
2021/04/10 00:23:01;;;;;;;7.10;2.58;;;;;;;;;;5047962;28;20504;-65
2021/04/10 00:25:29;;;;;;;8.10;3.45;;;;;;;;;;5051468;28;20072;-65
2021/04/10 00:27:56;;;;;;;8.00;3.08;;;;;;;;;;5042913;28;20515;-65
2021/04/10 00:30:24;;;;;;;7.32;3.13;;;;;;;;;;5050779;28;20045;-65
2021/04/10 00:32:52;;;;;;;8.15;2.95;;;;;;;;;;5040908;28;20482;-65
2021/04/10 00:35:19;;;;;;;7.65;3.25;;;;;;;;;;5050883;28;20132;-65
2021/04/10 00:37:47;;;;;;;9.90;3.30;;;;;;;;;;5043356;28;20044;-65
2021/04/10 00:40:14;;;;;;;8.23;3.13;;;;;;;;;;5050857;28;20171;-65
2021/04/10 00:42:42;;;;;;;7.78;2.67;;;;;;;;;;5050416;28;20166;-65
2021/04/10 00:45:10;;;;;;;8.93;3.15;;;;;;;;;;5050306;28;20053;-65
2021/04/10 00:47:37;;;;;;;8.13;2.72;;;;;;;;;;5050430;28;20124;-65
2021/04/10 00:50:07;;;;;;;6.72;3.20;;;;;;;;;;5050879;28;20037;-65
2021/04/10 00:52:34;;;;;;;6.82;3.38;;;;;;;;;;5049583;28;20164;-65
2021/04/10 00:55:03;;;;;;;8.90;2.97;;;;;;;;;;5043335;28;20132;-65
2021/04/10 00:57:31;;;;;;;6.32;3.03;;;;;;;;;;5050160;28;20135;-65
2021/04/10 00:59:58;;;;;;;4.65;2.67;;;;;;;;;;5050872;28;20080;-65
2021/04/10 01:02:26;;;;;;;9.45;3.20;;;;;;;;;;5048942;28;20134;-65
2021/04/10 01:04:53;;;;;;;10.82;3.13;;;;;;;;;;5047245;28;20488;-65
2021/04/10 01:07:21;;;;;;;7.57;3.33;;;;;;;;;;5048828;28;20131;-65
2021/04/10 01:09:53;;;;;;;8.65;2.92;;;;;;;;;;5047376;28;20496;-65
2021/04/10 01:12:41;;;;;;;7.50;2.80;;;;;;;;;;5046295;28;20084;-65
2021/04/10 01:15:13;;;;;;;7.20;3.10;;;;;;;;;;5045807;28;20108;-65
2021/04/10 01:17:44;;;;;;;8.63;3.42;;;;;;;;;;5049421;28;20062;-65
2021/04/10 01:20:17;;;;;;;6.78;2.58;;;;;;;;;;5050811;28;20045;-65
2021/04/10 01:23:05;;;;;;;7.22;2.97;;;;;;;;;;5049585;28;20136;-65
2021/04/10 01:25:41;;;;;;;6.68;3.40;;;;;;;;;;5049918;28;20339;-65
2021/04/10 01:28:13;;;;;;;8.57;3.22;;;;;;;;;;5050042;28;20120;-65
2021/04/10 01:30:41;;;;;;;6.40;2.78;;;;;;;;;;5049021;28;20133;-65
2021/04/10 01:33:12;;;;;;;7.30;3.03;;;;;;;;;;5050036;28;20051;-65
2021/04/10 01:35:41;;;;;;;6.22;2.70;;;;;;;;;;5050125;28;20095;-65
2021/04/10 01:38:09;;;;;;;8.25;2.55;;;;;;;;;;5049792;28;20052;-65
2021/04/10 01:40:37;;;;;;;7.47;2.78;;;;;;;;;;5053808;28;20075;-65
2021/04/10 01:43:05;;;;;;;7.40;3.05;;;;;;;;;;5050411;28;20045;-65
2021/04/10 01:45:32;;;;;;;8.52;3.38;;;;;;;;;;5045205;28;20564;-65
2021/04/10 01:48:03;;;;;;;5.72;2.70;;;;;;;;;;5043867;28;20136;-65
2021/04/10 01:50:30;;;;;;;7.93;2.78;;;;;;;;;;5054201;28;20041;-65
2021/04/10 01:52:59;;;;;;;7.95;3.03;;;;;;;;;;5054387;28;20063;-65
2021/04/10 01:55:27;;;;;;;6.32;2.80;;;;;;;;;;5053179;28;20048;-65
2021/04/10 01:57:54;;;;;;;7.05;2.65;;;;;;;;;;5046347;28;20063;-65
2021/04/10 02:00:24;;;;;;;7.05;2.65;;;;;;;;;;5053449;28;20135;-65
2021/04/10 02:02:52;;;;;;;5.97;2.63;;;;;;;;;;5053489;28;20132;-65
2021/04/10 02:05:21;;;;;;;8.07;3.22;;;;;;;;;;5052368;28;20156;-65
2021/04/10 02:07:50;;;;;;;4.50;2.60;;;;;;;;;;5052020;28;20045;-65
2021/04/10 02:10:18;;;;;;;3.42;2.50;;;;;;;;;;5052879;28;20133;-66
2021/04/10 02:12:48;;;;;;;4.20;2.40;;;;;;;;;;5053891;28;20538;-65
2021/04/10 02:15:15;;;;;;;5.35;2.97;;;;;;;;;;5052802;28;20567;-65
2021/04/10 02:17:43;;;;;;;8.15;2.90;;;;;;;;;;5052599;28;20144;-65
2021/04/10 02:20:12;;;;;;;4.45;2.55;;;;;;;;;;5053614;28;20048;-65
2021/04/10 02:22:42;;;;;;;4.88;2.78;;;;;;;;;;5053809;28;20051;-66
2021/04/10 02:25:11;;;;;;;3.85;2.33;;;;;;;;;;5046992;28;20588;-66
2021/04/10 02:27:38;;;;;;;6.32;3.33;;;;;;;;;;5052342;28;20049;-65
2021/04/10 02:30:07;;;;;;;7.40;3.08;;;;;;;;;;5052636;28;20076;-65
2021/04/10 02:32:36;;;;;;;6.57;2.85;;;;;;;;;;5054026;28;20075;-65
2021/04/10 02:35:06;;;;;;;8.88;2.88;;;;;;;;;;5052776;28;20553;-65
2021/04/10 02:37:34;;;;;;;7.65;3.10;;;;;;;;;;5050716;28;20044;-65
2021/04/10 02:40:04;;;;;;;10.85;3.42;;;;;;;;;;5042907;28;20589;-65
2021/04/10 02:42:32;;;;;;;11.80;3.60;;;;;;;;;;5053646;28;20123;-65
2021/04/10 02:45:03;;;;;;;5.25;2.75;;;;;;;;;;5053131;28;20045;-65
2021/04/10 02:47:31;;;;;;;6.15;2.75;;;;;;;;;;5051065;28;20069;-65
2021/04/10 02:50:00;;;;;;;8.85;3.80;;;;;;;;;;5052376;28;20041;-65
2021/04/10 02:52:30;;;;;;;7.10;2.80;;;;;;;;;;5050222;28;20123;-65
2021/04/10 02:54:57;;;;;;;9.05;3.33;;;;;;;;;;5057734;28;20067;-65
2021/04/10 02:57:26;;;;;;;5.38;2.75;;;;;;;;;;5060189;28;20052;-65
2021/04/10 02:59:55;;;;;;;5.90;2.85;;;;;;;;;;5054131;28;20499;-65
2021/04/10 03:02:23;;;;;;;7.85;2.78;;;;;;;;;;5052631;28;20051;-65
2021/04/10 03:04:51;;;;;;;5.43;3.40;;;;;;;;;;5051757;28;20102;-65
2021/04/10 03:07:18;;;;;;;8.70;2.80;;;;;;;;;;5048247;28;20543;-65
2021/04/10 03:09:47;;;;;;;8.88;2.85;;;;;;;;;;5052156;28;20135;-65
2021/04/10 03:12:14;;;;;;;6.28;3.17;;;;;;;;;;5052027;28;20131;-65
2021/04/10 03:14:42;;;;;;;7.55;3.20;;;;;;;;;;5052598;28;20140;-66
2021/04/10 03:17:10;;;;;;;7.40;3.33;;;;;;;;;;5051708;28;20165;-65
2021/04/10 03:19:38;;;;;;;7.88;3.40;;;;;;;;;;5052612;28;20511;-65
2021/04/10 03:22:06;;;;;;;5.28;3.00;;;;;;;;;;5053021;28;20037;-65
2021/04/10 03:24:34;;;;;;;6.85;2.83;;;;;;;;;;5052266;28;20139;-65
2021/04/10 03:27:02;;;;;;;9.88;2.97;;;;;;;;;;5050316;28;20527;-65
2021/04/10 03:29:30;;;;;;;6.03;2.80;;;;;;;;;;5051845;28;20469;-65
2021/04/10 03:31:59;;;;;;;8.60;3.15;;;;;;;;;;5048752;28;20046;-65
2021/04/10 03:34:26;;;;;;;8.05;3.15;;;;;;;;;;5049375;28;20480;-65
2021/04/10 03:36:54;;;;;;;6.72;2.72;;;;;;;;;;5046608;28;20471;-66
2021/04/10 03:39:21;;;;;;;6.53;2.92;;;;;;;;;;5049908;28;20053;-65
2021/04/10 03:41:49;;;;;;;8.25;2.95;;;;;;;;;;5051743;28;20127;-65
2021/04/10 03:44:16;;;;;;;5.88;3.50;;;;;;;;;;5042285;28;20404;-65
2021/04/10 03:46:43;;;;;;;7.53;2.67;;;;;;;;;;5049102;28;20151;-65
2021/04/10 03:49:12;;;;;;;12.07;3.08;;;;;;;;;;5050509;28;20114;-66
2021/04/10 03:51:39;;;;;;;8.35;3.05;;;;;;;;;;5041283;28;20915;-66
2021/04/10 03:54:06;;;;;;;10.07;3.20;;;;;;;;;;5051446;28;20044;-65
2021/04/10 03:56:34;;;;;;;6.35;2.83;;;;;;;;;;5051630;28;20072;-65
2021/04/10 03:59:01;;;;;;;7.82;2.88;;;;;;;;;;5051209;28;20103;-65
2021/04/10 04:01:28;;;;;;;6.43;3.10;;;;;;;;;;5049920;28;20059;-65
2021/04/10 04:03:57;;;;;;;10.30;3.40;;;;;;;;;;3612954;28;10023523;-65
2021/04/10 04:06:25;;;;;;;5.75;2.97;;;;;;;;;;1737347;28;10001990;-65
2021/04/10 04:08:52;;;;;;;9.73;3.00;;;;;;;;;;5044270;28;20502;-65
2021/04/10 04:11:20;;;;;;;9.93;2.92;;;;;;;;;;5051116;28;20446;-65
2021/04/10 04:13:47;;;;;;;7.07;3.20;;;;;;;;;;5049248;28;20076;-65
2021/04/10 04:16:14;;;;;;;6.30;3.40;;;;;;;;;;5045427;28;20063;-65
2021/04/10 04:18:42;;;;;;;12.73;4.35;;;;;;;;;;5045668;28;20041;-65
2021/04/10 04:21:09;;;;;;;6.20;3.28;;;;;;;;;;5052021;28;20041;-65
2021/04/10 04:23:37;;;;;;;7.68;3.20;;;;;;;;;;5050699;28;20563;-65
2021/04/10 04:26:04;;;;;;;11.18;3.65;;;;;;;;;;5049997;28;20384;-65
2021/04/10 04:28:32;;;;;;;7.43;3.17;;;;;;;;;;5049886;28;20048;-65
2021/04/10 04:30:59;;;;;;;8.52;3.15;;;;;;;;;;5047325;28;20131;-65
2021/04/10 04:33:27;;;;;;;7.93;4.53;;;;;;;;;;5051491;28;20040;-65
2021/04/10 04:35:54;;;;;;;7.03;3.33;;;;;;;;;;5040822;28;20084;-65
2021/04/10 04:38:22;;;;;;;6.85;3.40;;;;;;;;;;5050534;28;20075;-65
2021/04/10 04:40:51;;;;;;;10.27;3.42;;;;;;;;;;5050059;28;20088;-65
2021/04/10 04:43:18;;;;;;;8.25;2.90;;;;;;;;;;5049908;28;20049;-65
2021/04/10 04:45:45;;;;;;;6.93;3.10;;;;;;;;;;5047282;28;20051;-65
2021/04/10 04:48:12;;;;;;;8.10;3.33;;;;;;;;;;5050299;28;20117;-65
2021/04/10 04:50:40;;;;;;;5.47;3.30;;;;;;;;;;5050289;28;20523;-65
2021/04/10 04:53:07;;;;;;;6.90;2.90;;;;;;;;;;5050833;28;20128;-65
2021/04/10 04:55:34;;;;;;;9.57;3.28;;;;;;;;;;5049573;28;20053;-65
2021/04/10 04:58:02;;;;;;;6.72;3.28;;;;;;;;;;5048317;28;20089;-66
2021/04/10 05:00:30;;;;;;;5.43;2.85;;;;;;;;;;5049873;28;20132;-66
2021/04/10 05:02:57;;;;;;;6.70;3.92;;;;;;;;;;5049948;28;20052;-63
2021/04/10 05:05:25;;;;;;;7.88;2.90;;;;;;;;;;5051519;28;20053;-64
2021/04/10 05:07:52;;;;;;;7.45;2.95;;;;;;;;;;5049482;28;20568;-64
2021/04/10 05:10:19;;;;;;;4.75;3.13;;;;;;;;;;5049291;28;20399;-64
2021/04/10 05:12:47;;;;;;;5.22;2.97;;;;;;;;;;5050873;28;20091;-64
2021/04/10 05:15:15;;;;;;;6.00;3.45;;;;;;;;;;5050620;28;20059;-64
2021/04/10 05:17:43;;;;;;;7.45;3.00;;;;;;;;;;5039587;28;20111;-64
2021/04/10 05:20:10;;;;;;;6.05;2.90;;;;;;;;;;5050608;28;20713;-64
2021/04/10 05:22:38;;;;;;;7.13;2.80;;;;;;;;;;5050962;28;20069;-65
2021/04/10 05:25:05;;;;;;;6.93;3.15;;;;;;;;;;5051076;28;20124;-64
2021/04/10 05:27:33;;;;;;;6.13;3.08;;;;;;;;;;5050526;28;20041;-64
2021/04/10 05:30:00;;;;;;;6.68;3.08;;;;;;;;;;5050911;28;20051;-64
2021/04/10 05:32:28;;;;;;;6.45;2.92;;;;;;;;;;5050566;28;20113;-64
2021/04/10 05:34:56;;;;;;;5.72;3.00;;;;;;;;;;5050338;28;20053;-64
2021/04/10 05:37:23;;;;;;;4.78;2.42;;;;;;;;;;5049246;28;20053;-64
2021/04/10 05:39:50;;;;;;;7.13;3.30;;;;;;;;;;5050512;28;20098;-64
2021/04/10 05:42:18;;;;;;;8.48;2.88;;;;;;;;;;5050688;28;20056;-64
2021/04/10 05:44:45;;;;;;;8.70;4.20;;;;;;;;;;5050612;28;20136;-65
2021/04/10 05:47:12;;;;;;;6.20;2.63;;;;;;;;;;5045304;28;20160;-64
2021/04/10 05:49:40;;;;;;;8.10;2.83;;;;;;;;;;5046346;28;20157;-64
2021/04/10 05:52:08;;;;;;;6.50;2.75;;;;;;;;;;5044013;28;20049;-64
2021/04/10 05:54:35;;;;;;;6.78;2.63;;;;;;;;;;5047620;28;20518;-65
2021/04/10 05:57:03;;;;;;;6.85;2.85;;;;;;;;;;5045702;28;20045;-66
2021/04/10 05:59:30;;;;;;;4.97;2.35;;;;;;;;;;5041438;28;20132;-66
2021/04/10 06:01:57;;;;;;;6.25;2.60;;;;;;;;;;5044238;28;20139;-66
2021/04/10 06:04:25;;;;;;;6.53;2.88;;;;;;;;;;5037064;28;20140;-66
2021/04/10 06:06:53;;;;;;;5.20;2.50;;;;;;;;;;5044604;28;20094;-66
2021/04/10 06:09:20;;;;;;;7.00;2.78;;;;;;;;;;5048535;28;20040;-66
2021/04/10 06:11:47;;;;;;;7.03;2.53;;;;;;;;;;5041302;28;20530;-65
2021/04/10 06:14:15;;;;;;;7.05;2.50;;;;;;;;;;5040400;28;20123;-65
2021/04/10 06:16:42;;;;;;;9.20;4.05;;;;;;;;;;5037795;28;20136;-65
2021/04/10 06:19:10;;;;;;;7.47;2.45;;;;;;;;;;5039977;28;20076;-65
2021/04/10 06:21:37;;;;;;;5.07;2.05;;;;;;;;;;5040649;28;20041;-65
2021/04/10 06:24:06;;;;;;;7.90;2.63;;;;;;;;;;5040320;28;20044;-66
2021/04/10 06:26:34;;;;;;;7.88;2.72;;;;;;;;;;5047026;28;20409;-65
2021/04/10 06:29:01;;;;;;;6.85;2.47;;;;;;;;;;5041974;28;20143;-65
2021/04/10 06:31:28;;;;;;;5.53;2.63;;;;;;;;;;5042297;28;20513;-66
2021/04/10 06:33:55;;;;;;;5.97;2.13;;;;;;;;;;5041352;28;20048;-64
2021/04/10 06:36:25;;;;;;;5.72;2.22;;;;;;;;;;5045373;28;20080;-63
2021/04/10 06:38:52;;;;;;;8.93;2.75;;;;;;;;;;5046296;28;20057;-63
2021/04/10 06:41:21;;;;;;;6.43;2.22;;;;;;;;;;5047792;28;20048;-63
2021/04/10 06:43:49;;;;;;;4.75;2.10;;;;;;;;;;5045453;28;20153;-63
2021/04/10 06:46:17;;;;;;;7.68;2.15;;;;;;;;;;5030679;28;20045;-63
2021/04/10 06:48:45;;;;;;;5.72;2.33;;;;;;;;;;5041222;28;20136;-63
2021/04/10 06:51:14;;;;;;;9.68;2.38;;;;;;;;;;5047519;28;20049;-63
2021/04/10 06:53:44;;;;;;;3.90;1.90;;;;;;;;;;5047107;28;20506;-63
2021/04/10 06:56:12;;;;;;;4.50;2.20;;;;;;;;;;5049015;28;20151;-67
2021/04/10 06:58:48;;;;;;;10.07;2.35;;;;;;;;;;5044880;28;20155;-65
2021/04/10 07:01:17;;;;;;;8.13;2.65;;;;;;;;;;5044466;28;20141;-64
2021/04/10 07:03:45;;;;;;;9.23;2.28;;;;;;;;;;5048936;28;20147;-65
2021/04/10 07:06:13;;;;;;;10.63;2.65;;;;;;;;;;5047583;28;20154;-65
2021/04/10 07:08:40;;;;;;;87.55;6.13;;;;;;;;;;5035952;28;20056;-65
2021/04/10 07:11:08;;;;;;;73.50;7.10;;;;;;;;;;5043844;28;20565;-64
2021/04/10 07:13:36;;;;;;;28.55;3.70;;;;;;;;;;5049039;28;20444;-65
2021/04/10 07:16:05;;;;;;;16.20;2.65;;;;;;;;;;5049657;28;20045;-65
2021/04/10 07:18:32;;;;;;;6.95;2.22;;;;;;;;;;5048167;28;20487;-65
2021/04/10 07:21:16;;;;;;;4.88;2.30;;;;;;;;;;5049075;28;20060;-65
2021/04/10 07:23:43;;;;;;;3.30;1.92;;;;;;;;;;5047715;28;20115;-65
2021/04/10 07:26:11;;;;;;;9.60;2.47;;;;;;;;;;5045072;28;20135;-65
2021/04/10 07:28:38;;;;;;;4.75;2.10;;;;;;;;;;5036111;28;20045;-67
2021/04/10 07:31:07;;;;;;;5.50;2.25;;;;;;;;;;5050084;28;20072;-66
2021/04/10 07:33:35;;;;;;;7.80;2.42;;;;;;;;;;5052250;28;20061;-66
2021/04/10 07:36:03;;;;;;;5.13;2.15;;;;;;;;;;5033969;28;20049;-66
2021/04/10 07:38:31;;;;;;;5.85;2.25;;;;;;;;;;5050346;28;20136;-65
2021/04/10 07:41:02;;;;;;;6.55;2.53;;;;;;;;;;5052503;28;20099;-65
2021/04/10 07:43:30;;;;;;;6.68;2.05;;;;;;;;;;5047642;28;20132;-65
2021/04/10 07:46:18;;;;;;;4.32;2.20;;;;;;;;;;5050306;28;20073;-65
2021/04/10 07:49:02;;;;;;;8.13;2.08;;;;;;;;;;5051415;28;20049;-65
2021/04/10 07:51:29;;;;;;;4.50;1.80;;;;;;;;;;5042716;28;20041;-66
2021/04/10 07:53:57;;;;;;;4.82;2.00;;;;;;;;;;5039547;28;20491;-65
2021/04/10 07:56:24;;;;;;;8.77;2.35;;;;;;;;;;5045376;28;20495;-66
2021/04/10 07:58:51;;;;;;;4.95;1.90;;;;;;;;;;5050262;28;20065;-65
2021/04/10 08:01:20;;;;;;;4.72;2.10;;;;;;;;;;5049344;28;20084;-65
2021/04/10 08:03:50;;;;;;;7.38;2.00;;;;;;;;;;5051261;28;20044;-67
2021/04/10 08:06:21;;;;;;;3.45;1.63;;;;;;;;;;5049599;28;20084;-66
2021/04/10 08:08:53;;;;;;;3.97;1.80;;;;;;;;;;5051221;28;20049;-66
2021/04/10 08:11:31;;;;;;;4.55;1.90;;;;;;;;;;5047189;28;20053;-67
2021/04/10 08:13:59;;;;;;;6.18;2.00;;;;;;;;;;5047908;28;20080;-66
2021/04/10 08:16:27;;;;;;;8.10;1.67;;;;;;;;;;5049170;28;20104;-66
2021/04/10 08:18:55;;;;;;;10.80;1.83;;;;;;;;;;5049830;28;20044;-67
2021/04/10 08:21:37;;;;;;;4.22;1.50;;;;;;;;;;5050983;28;20045;-66
2021/04/10 08:24:23;;;;;;;7.07;2.10;;;;;;;;;;5046721;28;20080;-66
2021/04/10 08:26:51;;;;;;;4.80;2.20;;;;;;;;;;5040829;28;20095;-67
2021/04/10 08:29:19;;;;;;;6.05;1.65;;;;;;;;;;5050765;28;20461;-66
2021/04/10 08:31:47;;;;;;;4.22;2.00;;;;;;;;;;5050414;28;20124;-66
2021/04/10 08:34:15;;;;;;;5.30;2.47;;;;;;;;;;5048175;28;20501;-66
2021/04/10 08:36:43;;;;;;;4.47;2.15;;;;;;;;;;5041630;28;20091;-67
2021/04/10 08:39:12;;;;;;;4.68;2.17;;;;;;;;;;5050200;28;20443;-67
2021/04/10 08:41:40;;;;;;;7.95;2.78;;;;;;;;;;5050950;28;20106;-67
2021/04/10 08:44:08;;;;;;;8.15;2.28;;;;;;;;;;5050554;28;20053;-69
2021/04/10 08:46:37;;;;;;;7.10;1.70;;;;;;;;;;5047626;28;20048;-67
2021/04/10 08:49:07;;;;;;;4.68;1.63;;;;;;;;;;5045318;28;20400;-67
2021/04/10 08:51:39;;;;;;;6.07;2.78;;;;;;;;;;5050714;28;20409;-66
2021/04/10 08:54:09;;;;;;;3.05;1.70;;;;;;;;;;5049577;28;20578;-66
2021/04/10 08:56:36;;;;;;;8.43;1.60;;;;;;;;;;5048819;28;20052;-66
2021/04/10 08:59:11;;;;;;;5.05;2.25;;;;;;;;;;5048619;28;20132;-66
2021/04/10 09:01:39;;;;;;;;;;;;;;;;;;5049762;28;20052;-66
2021/04/10 09:04:07;;;;;;;8.77;1.70;;;;;;;;;;5049359;28;19966;-66
2021/04/10 09:06:52;;;;;;;5.90;1.65;;;;;;;;;;5050122;28;20061;-66
2021/04/10 09:09:30;;;;;;;6.25;2.28;;;;;;;;;;5014253;28;20127;-66
2021/04/10 09:12:17;;;;;;;3.58;1.90;;;;;;;;;;5034587;28;20045;-66
2021/04/10 09:14:45;;;;;;;8.25;1.90;;;;;;;;;;5040112;28;20045;-66
2021/04/10 09:17:14;;;;;;;12.68;2.13;;;;;;;;;;5046489;28;20095;-66
2021/04/10 09:19:42;;;;;;;5.00;1.73;;;;;;;;;;5047261;28;20600;-67
2021/04/10 09:22:16;;;;;;;6.35;1.88;;;;;;;;;;5048661;28;20045;-68
2021/04/10 09:24:45;;;;;;;23.38;3.70;;;;;;;;;;5050675;28;20045;-67
2021/04/10 09:27:19;;;;;;;6.50;1.80;;;;;;;;;;5048907;28;20056;-67
2021/04/10 09:29:54;;;;;;;7.72;2.10;;;;;;;;;;5047703;28;20041;-67
2021/04/10 09:32:32;;;;;;;3.05;1.63;;;;;;;;;;5051036;28;20060;-67
2021/04/10 09:35:01;;;;;;;3.70;1.98;;;;;;;;;;5045318;28;20056;-66
2021/04/10 09:38:02;;;;;;;7.60;2.58;;;;;;;;;;5047607;28;20057;-71
2021/04/10 09:40:48;;;;;;;5.40;2.00;;;;;;;;;;5031404;28;20049;-67
2021/04/10 09:43:18;;;;;;;7.45;2.63;;;;;;;;;;5044069;28;20045;-68
2021/04/10 09:45:45;;;;;;;3.53;1.85;;;;;;;;;;5049569;28;20045;-68
2021/04/10 09:48:20;;;;;;;5.00;1.90;;;;;;;;;;5045721;28;20041;-68
2021/04/10 09:51:05;;;;;;;4.07;1.98;;;;;;;;;;5049458;28;20060;-68
2021/04/10 09:53:33;;;;;;;5.43;2.10;;;;;;;;;;5051204;28;20045;-69
2021/04/10 09:56:03;;;;;;;5.30;2.40;;;;;;;;;;5048302;28;20084;-69
2021/04/10 09:58:34;;;;;;;10.88;2.10;;;;;;;;;;5036298;28;20053;-68
2021/04/10 10:01:04;;;;;;;6.90;2.00;;;;;;;;;;5050654;28;20045;-68
2021/04/10 10:03:32;;;;;;;5.15;1.92;;;;;;;;;;5053311;28;20103;-68
2021/04/10 10:06:20;;;;;;;4.00;1.90;;;;;;;;;;5053314;28;20174;-68
2021/04/10 10:08:48;;;;;;;6.55;1.88;;;;;;;;;;5053038;28;20128;-68
2021/04/10 10:11:16;;;;;;;5.47;1.80;;;;;;;;;;5048639;28;20474;-68
2021/04/10 10:13:44;;;;;;;6.10;2.03;;;;;;;;;;5050494;28;20145;-67
2021/04/10 10:16:11;;;;;;;4.53;1.95;;;;;;;;;;5047485;28;20045;-68
2021/04/10 10:18:39;;;;;;;6.38;1.90;;;;;;;;;;5048686;28;20041;-69
2021/04/10 10:21:07;;;;;;;7.03;2.20;;;;;;;;;;5052257;28;20077;-68
2021/04/10 10:23:37;;;;;;;3.70;1.70;;;;;;;;;;5051994;28;20114;-67
2021/04/10 10:26:06;;;;;;;4.25;1.95;;;;;;;;;;5046194;28;20057;-69
2021/04/10 10:28:34;;;;;;;6.97;2.38;;;;;;;;;;5047034;28;20076;-69
2021/04/10 10:31:05;;;;;;;13.32;2.50;;;;;;;;;;5047386;28;20361;-69
2021/04/10 10:33:33;;;;;;;4.07;2.30;;;;;;;;;;5042734;28;20083;-69
2021/04/10 10:36:01;;;;;;;4.43;2.25;;;;;;;;;;5044468;28;20080;-68
2021/04/10 10:38:37;;;;;;;5.88;2.05;;;;;;;;;;5050726;28;20427;-67
2021/04/10 10:41:05;;;;;;;4.80;2.05;;;;;;;;;;5049263;28;20144;-69
2021/04/10 10:43:33;;;;;;;5.45;2.20;;;;;;;;;;5044305;28;20053;-68
2021/04/10 10:46:02;;;;;;;6.38;2.33;;;;;;;;;;5044071;28;20053;-70
2021/04/10 10:48:31;;;;;;;5.70;2.63;;;;;;;;;;5047958;28;20122;-67
2021/04/10 10:51:04;;;;;;;6.50;2.30;;;;;;;;;;5044695;28;20049;-67
2021/04/10 10:53:33;;;;;;;6.32;2.58;;;;;;;;;;5044367;28;20056;-67
2021/04/10 10:56:11;;;;;;;10.95;2.75;;;;;;;;;;5044121;28;20041;-66
2021/04/10 10:58:41;;;;;;;9.80;2.45;;;;;;;;;;5049977;28;20049;-70
2021/04/10 11:01:12;;;;;;;5.80;2.20;;;;;;;;;;5050660;28;20094;-68
2021/04/10 11:03:43;;;;;;;6.72;2.10;;;;;;;;;;5041123;28;20458;-69
2021/04/10 11:06:11;;;;;;;5.55;2.40;;;;;;;;;;5033697;28;20541;-69
2021/04/10 11:08:39;;;;;;;5.20;2.05;;;;;;;;;;5049055;28;20045;-67
2021/04/10 11:11:07;;;;;;;3.65;1.95;;;;;;;;;;5040241;28;20461;-68
2021/04/10 11:13:36;;;;;;;6.82;2.20;;;;;;;;;;5048181;28;20484;-67
2021/04/10 11:16:04;;;;;;;7.43;2.65;;;;;;;;;;5051490;28;20049;-68
2021/04/10 11:18:33;;;;;;;5.28;2.10;;;;;;;;;;5043418;28;20080;-69
2021/04/10 11:21:14;;;;;;;6.22;2.45;;;;;;;;;;5048759;28;20659;-67
2021/04/10 11:24:01;;;;;;;5.25;2.03;;;;;;;;;;5043575;28;20057;-68
2021/04/10 11:26:36;;;;;;;4.75;2.33;;;;;;;;;;5047874;28;20345;-67
2021/04/10 11:29:28;;;;;;;4.93;2.08;;;;;;;;;;5042477;28;20075;-68
2021/04/10 11:32:22;;;;;;;5.00;2.50;;;;;;;;;;5043037;28;20053;-68
2021/04/10 11:34:58;;;;;;;4.57;2.20;;;;;;;;;;5042609;28;20045;-67
2021/04/10 11:37:45;;;;;;;5.10;2.53;;;;;;;;;;5043642;28;20454;-67
2021/04/10 11:40:22;;;;;;;10.32;2.65;;;;;;;;;;5044687;28;20095;-70
2021/04/10 11:42:51;;;;;;;6.57;2.47;;;;;;;;;;5039944;28;20044;-67
2021/04/10 11:45:28;;;;;;;6.82;2.88;;;;;;;;;;5044276;28;20552;-69
2021/04/10 11:48:15;;;;;;;7.80;2.80;;;;;;;;;;5039111;28;20049;-67
2021/04/10 11:50:44;;;;;;;10.75;2.83;;;;;;;;;;5044098;28;20045;-67
2021/04/10 11:53:16;;;;;;;6.63;2.65;;;;;;;;;;5045686;28;20080;-68
2021/04/10 11:55:44;;;;;;;6.00;3.00;;;;;;;;;;5049528;28;20049;-68
2021/04/10 11:58:11;;;;;;;6.95;2.40;;;;;;;;;;5048585;28;20064;-67
2021/04/10 12:00:39;;;;;;;6.55;2.53;;;;;;;;;;5048720;28;20075;-68
2021/04/10 12:03:07;;;;;;;4.07;2.42;;;;;;;;;;5045647;28;20063;-68
2021/04/10 12:05:39;;;;;;;7.40;2.40;;;;;;;;;;5047454;28;20064;-69
2021/04/10 12:08:12;;;;;;;5.80;2.75;;;;;;;;;;5049159;28;20103;-68
2021/04/10 12:10:40;;;;;;;5.35;2.67;;;;;;;;;;5036877;28;20120;-68
2021/04/10 12:13:08;;;;;;;5.93;2.05;;;;;;;;;;5040539;28;20053;-67
2021/04/10 12:15:36;;;;;;;7.05;2.63;;;;;;;;;;5046013;28;20048;-68
2021/04/10 12:18:04;;;;;;;7.55;3.00;;;;;;;;;;5048283;28;20057;-68
2021/04/10 12:20:32;;;;;;;5.28;2.75;;;;;;;;;;5050468;28;20124;-67
2021/04/10 12:22:59;;;;;;;6.10;2.80;;;;;;;;;;5049023;28;20080;-67
2021/04/10 12:25:27;;;;;;;5.95;2.70;;;;;;;;;;5043496;28;20056;-67
2021/04/10 12:27:55;;;;;;;5.80;3.13;;;;;;;;;;5041426;28;20066;-67
2021/04/10 12:30:23;;;;;;;5.70;2.42;;;;;;;;;;5043860;28;20084;-68
2021/04/10 12:32:51;;;;;;;5.85;2.70;;;;;;;;;;5050262;28;20160;-68
2021/04/10 12:35:18;;;;;;;8.25;3.40;;;;;;;;;;5042026;28;20044;-67
2021/04/10 12:37:46;;;;;;;5.45;3.22;;;;;;;;;;5049585;28;20052;-70
2021/04/10 12:40:13;;;;;;;4.63;2.72;;;;;;;;;;5042257;28;20116;-68
2021/04/10 12:42:46;;;;;;;5.57;2.90;;;;;;;;;;5046682;28;20049;-67
2021/04/10 12:45:14;;;;;;;7.45;3.15;;;;;;;;;;5051277;28;20139;-67
2021/04/10 12:47:43;;;;;;;5.93;2.95;;;;;;;;;;5048732;28;20115;-67
2021/04/10 12:50:12;;;;;;;4.75;2.80;;;;;;;;;;5040069;28;20443;-67
2021/04/10 12:52:39;;;;;;;6.93;3.08;;;;;;;;;;5033035;28;20488;-69
2021/04/10 12:55:07;;;;;;;9.50;3.00;;;;;;;;;;5059857;28;20052;-67
2021/04/10 12:57:35;;;;;;;9.07;3.33;;;;;;;;;;5050327;28;20446;-68
2021/04/10 13:00:04;;;;;;;5.00;2.30;;;;;;;;;;5050853;28;20052;-68
2021/04/10 13:02:31;;;;;;;6.20;2.55;;;;;;;;;;5050854;28;20095;-68
2021/04/10 13:04:59;;;;;;;6.00;2.67;;;;;;;;;;5050790;28;20114;-68
2021/04/10 13:07:26;;;;;;;9.02;3.50;;;;;;;;;;5049896;28;20069;-67
2021/04/10 13:09:54;;;;;;;9.18;3.17;;;;;;;;;;5048833;28;20048;-68
2021/04/10 13:12:21;;;;;;;6.13;3.28;;;;;;;;;;5050278;28;20171;-68
2021/04/10 13:14:51;;;;;;;6.97;2.95;;;;;;;;;;5049443;28;20041;-68
2021/04/10 13:17:20;;;;;;;4.10;2.63;;;;;;;;;;5050188;28;20103;-68
2021/04/10 13:19:48;;;;;;;10.43;2.97;;;;;;;;;;5051462;28;20045;-68
2021/04/10 13:22:15;;;;;;;4.57;2.88;;;;;;;;;;5050859;28;20091;-68
2021/04/10 13:24:43;;;;;;;6.85;3.15;;;;;;;;;;5049862;28;20103;-67
2021/04/10 13:27:12;;;;;;;5.65;3.40;;;;;;;;;;5041416;28;20051;-69
2021/04/10 13:29:39;;;;;;;7.72;3.00;;;;;;;;;;5047063;28;20099;-67
2021/04/10 13:32:07;;;;;;;6.57;3.33;;;;;;;;;;5048220;28;20067;-68
2021/04/10 13:34:35;;;;;;;4.85;2.88;;;;;;;;;;5047183;28;20048;-68
2021/04/10 13:37:03;;;;;;;4.68;3.15;;;;;;;;;;5051470;28;20077;-67
2021/04/10 13:39:30;;;;;;;6.43;3.33;;;;;;;;;;5052047;28;20151;-67
2021/04/10 13:41:58;;;;;;;7.13;3.00;;;;;;;;;;5053766;28;20045;-68
2021/04/10 13:44:25;;;;;;;7.63;3.22;;;;;;;;;;5054756;28;20041;-69
2021/04/10 13:46:53;;;;;;;6.05;2.72;;;;;;;;;;5052132;28;20056;-68
2021/04/10 13:49:21;;;;;;;8.27;3.67;;;;;;;;;;5054380;28;20040;-68
2021/04/10 13:51:49;;;;;;;7.70;3.33;;;;;;;;;;5050661;28;20045;-68
2021/04/10 13:54:18;;;;;;;6.70;2.67;;;;;;;;;;5054422;28;20099;-68
2021/04/10 13:56:45;;;;;;;7.35;3.13;;;;;;;;;;5051188;28;20080;-68
2021/04/10 13:59:12;;;;;;;4.32;2.80;;;;;;;;;;5051463;28;20037;-68
2021/04/10 14:01:40;;;;;;;7.30;3.63;;;;;;;;;;5042560;28;20467;-68
2021/04/10 14:04:08;;;;;;;4.65;3.00;;;;;;;;;;5054073;28;20508;-68
2021/04/10 14:06:36;;;;;;;6.47;3.20;;;;;;;;;;5053484;28;20092;-67
2021/04/10 14:09:07;;;;;;;9.75;3.83;;;;;;;;;;5051076;28;20048;-68
2021/04/10 14:11:34;;;;;;;7.22;3.92;;;;;;;;;;5042497;28;20046;-68
2021/04/10 14:14:02;;;;;;;8.30;3.92;;;;;;;;;;5052895;28;20041;-67
2021/04/10 14:16:29;;;;;;;6.45;3.72;;;;;;;;;;5053894;28;20099;-68
2021/04/10 14:18:56;;;;;;;4.10;2.85;;;;;;;;;;5052910;28;20065;-68
2021/04/10 14:21:24;;;;;;;5.95;2.90;;;;;;;;;;5052422;28;20060;-67
2021/04/10 14:23:53;;;;;;;5.05;3.35;;;;;;;;;;5049956;28;20049;-67
2021/04/10 14:26:21;;;;;;;8.70;3.70;;;;;;;;;;5053340;28;20563;-67
2021/04/10 14:28:50;;;;;;;6.50;3.30;;;;;;;;;;5053059;28;20140;-67
2021/04/10 14:31:18;;;;;;;9.70;3.20;;;;;;;;;;5047768;28;20041;-67
2021/04/10 14:33:45;;;;;;;6.43;3.42;;;;;;;;;;5053310;28;20455;-67
2021/04/10 14:36:13;;;;;;;9.40;3.35;;;;;;;;;;5047356;28;20122;-64
2021/04/10 14:38:40;;;;;;;9.07;2.95;;;;;;;;;;5056783;28;20491;-65
2021/04/10 14:41:08;;;;;;;9.13;3.88;;;;;;;;;;5051353;28;20053;-65
2021/04/10 14:43:38;;;;;;;8.73;3.97;;;;;;;;;;5049972;28;20132;-65
2021/04/10 14:46:05;;;;;;;6.80;3.17;;;;;;;;;;5047138;28;20064;-64
2021/04/10 14:48:33;;;;;;;6.93;3.50;;;;;;;;;;5052235;28;20048;-65
2021/04/10 14:51:01;;;;;;;9.45;3.60;;;;;;;;;;5051823;28;20049;-65
2021/04/10 14:53:29;;;;;;;9.05;3.30;;;;;;;;;;5053752;28;20049;-65
2021/04/10 14:55:58;;;;;;;8.75;3.55;;;;;;;;;;5046311;28;20053;-66